Time;durP1;ratioP1;P1;durP2;ratioP2;P2;SDS_P1;SDS_P2;PMS_P1;PMS_P2;Temp;Humidity;BMP_temperature;BMP_pressure;BME280_temperature;BME280_humidity;BME280_pressure;Samples;Min_cycle;Max_cycle;Signal;HPM_P1;HPM_P2
2023/06/22 00:02:26;;;;;;;5.90;4.25;;;;;;;17.58;84.53;101997.75;4991589;28;20513;-77
2023/06/22 00:04:52;;;;;;;3.97;3.72;;;;;;;17.53;85.32;101995.69;4993109;28;20051;-74
2023/06/22 00:07:19;;;;;;;4.30;4.00;;;;;;;17.50;85.13;101998.56;4974742;28;20498;-75
2023/06/22 00:09:45;;;;;;;4.53;4.13;;;;;;;17.47;84.74;101999.47;4992547;28;20055;-75
2023/06/22 00:12:12;;;;;;;4.40;4.10;;;;;;;17.45;85.27;102002.63;4992631;28;20047;-75
2023/06/22 00:14:39;;;;;;;5.53;4.22;;;;;;;17.44;85.23;102006.50;4992588;28;20526;-75
2023/06/22 00:17:05;;;;;;;6.78;4.00;;;;;;;17.41;85.54;101999.34;4994632;28;20126;-75
2023/06/22 00:19:32;;;;;;;4.53;4.13;;;;;;;17.40;85.65;101995.16;4995761;28;20526;-75
2023/06/22 00:22:00;;;;;;;6.65;4.10;;;;;;;17.37;85.20;101989.94;4978971;28;20079;-75
2023/06/22 00:24:26;;;;;;;7.38;4.25;;;;;;;17.35;85.31;101995.78;4978024;28;20484;-75
2023/06/22 00:26:53;;;;;;;3.97;3.75;;;;;;;17.32;85.22;101994.00;4996184;28;20081;-75
2023/06/22 00:29:20;;;;;;;4.15;3.88;;;;;;;17.26;85.03;101991.19;4993954;28;20113;-75
2023/06/22 00:31:49;;;;;;;4.70;3.90;;;;;;;17.19;85.65;101990.78;4977818;28;20043;-75
2023/06/22 00:34:15;;;;;;;4.65;4.22;;;;;;;17.11;85.82;101982.28;4995582;28;20503;-75
2023/06/22 00:36:42;;;;;;;5.32;4.20;;;;;;;17.05;85.77;101984.09;4994149;28;20141;-75
2023/06/22 00:39:09;;;;;;;4.90;4.50;;;;;;;16.99;86.66;101980.53;4977870;28;20139;-75
2023/06/22 00:41:35;;;;;;;3.88;3.58;;;;;;;16.92;87.00;101975.47;4995512;28;20509;-75
2023/06/22 00:44:03;;;;;;;4.78;4.22;;;;;;;16.90;86.67;101977.88;4994347;28;20058;-75
2023/06/22 00:46:31;;;;;;;5.35;4.65;;;;;;;16.90;86.62;101975.19;4994666;28;20538;-76
2023/06/22 00:48:59;;;;;;;5.07;4.50;;;;;;;16.88;86.98;101974.88;4995776;28;20094;-76
2023/06/22 00:51:27;;;;;;;6.40;4.30;;;;;;;16.87;87.41;101974.13;4995125;28;20039;-76
2023/06/22 00:53:54;;;;;;;5.10;4.20;;;;;;;16.85;87.61;101978.47;4978012;28;20211;-76
2023/06/22 00:56:24;;;;;;;4.65;4.20;;;;;;;16.80;87.07;101974.47;4977248;28;20047;-76
2023/06/22 00:58:52;;;;;;;4.53;4.22;;;;;;;16.79;87.73;101978.38;4977970;28;20146;-76
2023/06/22 01:01:22;;;;;;;4.70;4.40;;;;;;;16.76;87.77;101978.53;4977349;28;20082;-76
2023/06/22 01:03:51;;;;;;;4.78;4.38;;;;;;;16.75;87.57;101969.72;4995715;28;20051;-76
2023/06/22 01:06:39;;;;;;;3.97;3.78;;;;;;;16.68;87.32;101967.34;4993805;28;20141;-76
2023/06/22 01:09:15;;;;;;;5.82;4.65;;;;;;;16.64;87.77;101972.88;4995152;28;20094;-76
2023/06/22 01:11:48;;;;;;;4.63;4.22;;;;;;;16.59;87.53;101965.38;4995180;28;20053;-76
2023/06/22 01:14:23;;;;;;;4.10;3.85;;;;;;;16.51;87.01;101972.25;4993255;28;20094;-76
2023/06/22 01:16:54;;;;;;;5.28;4.10;;;;;;;16.50;87.70;101978.09;4995426;28;20459;-76
2023/06/22 01:19:46;;;;;;;4.20;3.80;;;;;;;16.52;87.33;101995.25;4993214;28;20054;-76
2023/06/22 01:22:17;;;;;;;4.20;3.40;;;;;;;16.48;88.00;101983.16;4993627;28;20082;-76
2023/06/22 01:24:59;;;;;;;4.10;3.80;;;;;;;16.45;87.58;101976.75;4995169;28;20047;-76
2023/06/22 01:27:41;;;;;;;3.83;3.60;;;;;;;16.37;88.01;101958.72;4994579;28;20132;-76
2023/06/22 01:30:10;;;;;;;4.40;4.00;;;;;;;16.26;88.75;101961.84;4994707;28;20109;-75
2023/06/22 01:32:39;;;;;;;5.45;3.83;;;;;;;16.27;88.56;101964.09;4994631;28;20109;-76
2023/06/22 01:35:07;;;;;;;4.63;4.22;;;;;;;16.27;89.20;101974.09;4977473;28;20054;-75
2023/06/22 01:37:35;;;;;;;4.53;4.22;;;;;;;16.25;89.68;101973.78;4993398;28;20109;-74
2023/06/22 01:40:05;;;;;;;5.13;4.65;;;;;;;16.20;89.91;101967.06;4994737;28;20046;-74
2023/06/22 01:42:32;;;;;;;6.25;5.25;;;;;;;16.17;89.47;101964.53;4976090;28;20570;-74
2023/06/22 01:44:59;;;;;;;4.60;4.20;;;;;;;16.16;90.36;101969.16;4994902;28;20448;-75
2023/06/22 01:47:27;;;;;;;6.28;4.07;;;;;;;16.13;90.49;101970.06;4994149;28;20516;-75
2023/06/22 01:49:54;;;;;;;4.85;4.45;;;;;;;16.07;90.69;101965.72;4994711;28;20482;-74
2023/06/22 01:52:21;;;;;;;4.75;4.22;;;;;;;16.07;90.36;101958.41;4992655;28;20519;-74
2023/06/22 01:54:48;;;;;;;5.32;4.82;;;;;;;16.03;91.07;101963.19;4994880;28;20039;-74
2023/06/22 01:57:15;;;;;;;5.10;4.70;;;;;;;15.98;90.88;101964.56;4976002;28;20055;-75
2023/06/22 01:59:57;;;;;;;5.43;5.00;;;;;;;15.97;90.78;101968.44;4992781;28;20577;-74
2023/06/22 02:02:29;;;;;;;5.32;4.93;;;;;;;15.96;90.69;101966.19;4992544;28;20110;-75
2023/06/22 02:05:01;;;;;;;5.88;4.85;;;;;;;15.93;90.00;101959.03;4994568;28;20042;-76
2023/06/22 02:07:41;;;;;;;5.60;5.10;;;;;;;15.89;90.49;101958.44;4976046;28;20055;-76
2023/06/22 02:10:12;;;;;;;5.10;4.57;;;;;;;15.84;90.64;101951.69;4976252;28;20054;-76
2023/06/22 02:12:39;;;;;;;5.05;4.53;;;;;;;15.82;90.35;101951.41;4993954;28;20065;-76
2023/06/22 02:15:07;;;;;;;5.43;4.93;;;;;;;15.80;91.36;101948.41;4994599;28;20051;-76
2023/06/22 02:17:34;;;;;;;5.03;4.63;;;;;;;15.79;90.93;101946.91;4992735;28;20051;-76
2023/06/22 02:20:07;;;;;;;6.97;4.32;;;;;;;15.73;90.89;101954.06;4976140;28;20070;-76
2023/06/22 02:22:35;;;;;;;5.03;4.63;;;;;;;15.72;91.35;101955.25;4976588;28;20141;-76
2023/06/22 02:25:02;;;;;;;4.85;4.25;;;;;;;15.71;91.25;101951.09;4976392;28;20070;-76
2023/06/22 02:27:28;;;;;;;4.30;4.00;;;;;;;15.68;90.72;101947.34;4991699;28;20062;-76
2023/06/22 02:29:55;;;;;;;5.13;4.28;;;;;;;15.66;91.58;101947.03;4994047;28;20053;-76
2023/06/22 02:32:22;;;;;;;5.05;4.60;;;;;;;15.64;90.71;101954.06;4993431;28;20065;-77
2023/06/22 02:34:48;;;;;;;4.93;4.53;;;;;;;15.62;91.30;101962.53;4994143;28;20464;-76
2023/06/22 02:37:15;;;;;;;6.00;4.40;;;;;;;15.60;91.69;101954.19;4993877;28;20047;-75
2023/06/22 02:39:42;;;;;;;4.30;4.00;;;;;;;15.55;91.50;101951.34;4992938;28;20050;-76
2023/06/22 02:42:10;;;;;;;4.03;3.83;;;;;;;15.49;90.75;101956.53;4993464;28;20045;-76
2023/06/22 02:44:37;;;;;;;5.22;3.78;;;;;;;15.46;90.59;101959.38;4976252;28;20464;-76
2023/06/22 02:47:04;;;;;;;4.13;3.80;;;;;;;15.45;90.09;101953.25;4976129;28;20063;-76
2023/06/22 02:49:31;;;;;;;5.80;4.07;;;;;;;15.45;91.03;101944.47;4993287;28;20050;-75
2023/06/22 02:51:57;;;;;;;4.40;4.10;;;;;;;15.40;91.07;101945.78;4993834;28;20073;-74
2023/06/22 02:54:25;;;;;;;4.47;4.10;;;;;;;15.36;90.53;101945.19;4975395;28;20583;-74
2023/06/22 02:56:53;;;;;;;9.13;4.20;;;;;;;15.32;90.01;101947.25;4975892;28;20055;-74
2023/06/22 02:59:23;;;;;;;4.10;3.90;;;;;;;15.32;91.31;101949.94;4991452;28;20055;-75
2023/06/22 03:01:55;;;;;;;4.60;4.30;;;;;;;15.30;91.08;101953.06;4992249;28;20495;-74
2023/06/22 03:04:26;;;;;;;3.97;3.57;;;;;;;15.29;90.96;101946.19;4975430;28;20568;-74
2023/06/22 03:06:53;;;;;;;5.75;5.10;;;;;;;15.25;91.55;101950.94;4959777;28;20057;-74
2023/06/22 03:09:19;;;;;;;4.85;4.40;;;;;;;15.22;91.88;101954.50;4992874;28;20110;-74
2023/06/22 03:11:46;;;;;;;7.72;5.00;;;;;;;15.20;91.27;101948.09;4976059;28;20046;-75
2023/06/22 03:14:13;;;;;;;4.82;4.32;;;;;;;15.18;92.02;101953.94;4991645;28;20134;-74
2023/06/22 03:16:40;;;;;;;5.30;4.90;;;;;;;15.13;92.38;101954.50;4975406;28;20502;-74
2023/06/22 03:19:07;;;;;;;5.60;4.63;;;;;;;15.12;92.20;101947.66;4991547;28;20195;-74
2023/06/22 03:21:34;;;;;;;6.07;5.47;;;;;;;15.12;93.32;101952.25;4993113;28;20046;-76
2023/06/22 03:24:01;;;;;;;5.82;4.60;;;;;;;15.10;93.19;101952.69;4975153;28;20554;-74
2023/06/22 03:26:27;;;;;;;5.95;4.95;;;;;;;15.06;92.99;101949.41;4991157;28;20053;-74
2023/06/22 03:28:54;;;;;;;5.20;4.80;;;;;;;15.05;92.09;101944.47;4991856;28;20086;-74
2023/06/22 03:31:21;;;;;;;5.97;4.90;;;;;;;15.05;92.85;101934.50;4991090;28;20110;-74
2023/06/22 03:33:49;;;;;;;5.70;5.00;;;;;;;15.04;93.09;101932.25;4991702;28;20058;-75
2023/06/22 03:36:22;;;;;;;7.40;5.32;;;;;;;15.03;93.20;101928.84;4974604;28;20062;-74
2023/06/22 03:38:49;;;;;;;5.65;5.22;;;;;;;15.00;92.98;101927.78;4992687;28;20043;-75
2023/06/22 03:41:17;;;;;;;6.03;5.35;;;;;;;15.01;93.38;101918.53;4974449;28;20051;-74
2023/06/22 03:43:44;;;;;;;5.57;5.18;;;;;;;14.99;93.77;101928.97;4991348;28;20109;-74
2023/06/22 03:46:10;;;;;;;5.35;4.85;;;;;;;14.99;93.36;101933.56;4992599;28;20053;-75
2023/06/22 03:48:38;;;;;;;6.18;5.57;;;;;;;14.98;93.56;101927.47;4975388;28;20077;-74
2023/06/22 03:51:06;;;;;;;9.40;5.35;;;;;;;14.99;93.61;101920.91;4991467;28;20078;-74
2023/06/22 03:53:32;;;;;;;6.22;5.50;;;;;;;14.99;94.10;101918.25;4992116;28;20047;-75
2023/06/22 03:55:59;;;;;;;6.95;5.85;;;;;;;15.00;94.77;101919.72;4993017;28;20107;-75
2023/06/22 03:58:26;;;;;;;6.13;5.63;;;;;;;14.99;94.22;101918.25;4992133;28;20094;-74
2023/06/22 04:00:52;;;;;;;6.57;5.97;;;;;;;14.98;95.14;101916.00;4993057;28;20165;-75
2023/06/22 04:03:20;;;;;;;6.13;5.53;;;;;;;14.99;95.25;101917.50;4990608;28;20074;-74
2023/06/22 04:05:47;;;;;;;7.45;5.85;;;;;;;14.99;95.36;101918.25;4975284;28;20070;-74
2023/06/22 04:08:14;;;;;;;6.80;6.18;;;;;;;14.98;96.20;101916.00;4991766;28;20047;-74
2023/06/22 04:10:41;;;;;;;7.70;6.88;;;;;;;14.97;96.76;101919.88;4992281;28;20047;-74
2023/06/22 04:13:08;;;;;;;7.65;6.75;;;;;;;15.02;96.46;101911.25;4992562;28;20047;-74
2023/06/22 04:15:35;;;;;;;8.32;6.28;;;;;;;15.09;96.68;101910.22;4992313;28;20110;-75
2023/06/22 04:18:03;;;;;;;9.20;7.20;;;;;;;15.16;96.28;101899.22;4992626;28;20047;-74
2023/06/22 04:20:31;;;;;;;7.50;6.90;;;;;;;15.23;96.88;101904.28;4992115;28;20049;-74
2023/06/22 04:22:58;;;;;;;8.70;7.28;;;;;;;15.30;97.33;101904.03;4992185;28;20519;-74
2023/06/22 04:25:25;;;;;;;9.48;7.13;;;;;;;15.35;97.51;101912.22;4991943;28;20453;-75
2023/06/22 04:27:52;;;;;;;8.63;7.72;;;;;;;15.44;97.54;101911.50;4990860;28;20083;-75
2023/06/22 04:30:19;;;;;;;9.38;8.48;;;;;;;15.54;97.07;101902.28;4991892;28;20151;-74
2023/06/22 04:32:45;;;;;;;7.80;7.10;;;;;;;15.61;97.26;101903.94;4992464;28;20039;-74
2023/06/22 04:35:12;;;;;;;14.35;9.00;;;;;;;15.68;97.42;101904.41;4991785;28;20133;-75
2023/06/22 04:37:39;;;;;;;10.30;9.02;;;;;;;15.75;97.39;101891.88;4991752;28;20059;-75
2023/06/22 04:40:06;;;;;;;13.52;9.82;;;;;;;15.83;97.54;101903.81;4992321;28;20102;-75
2023/06/22 04:42:35;;;;;;;13.35;10.43;;;;;;;16.02;96.83;101897.97;4991771;28;20039;-75
2023/06/22 04:45:02;;;;;;;11.02;9.65;;;;;;;16.15;96.51;101897.81;4974292;28;20103;-75
2023/06/22 04:47:28;;;;;;;13.93;10.50;;;;;;;16.32;96.34;101903.63;4991590;28;20054;-74
2023/06/22 04:49:55;;;;;;;12.52;11.23;;;;;;;16.76;95.79;101914.00;4991983;28;20039;-75
2023/06/22 04:52:22;;;;;;;15.43;11.70;;;;;;;17.53;92.38;101909.53;4991098;28;20043;-74
2023/06/22 04:54:50;;;;;;;14.60;11.32;;;;;;;18.24;88.67;101908.66;4991983;28;20566;-74
2023/06/22 04:57:17;;;;;;;15.52;11.98;;;;;;;18.98;83.85;101914.75;4991529;28;20074;-75
2023/06/22 04:59:44;;;;;;;16.02;11.75;;;;;;;19.61;80.85;101920.47;4991826;28;20047;-75
2023/06/22 05:02:10;;;;;;;16.33;11.77;;;;;;;20.61;76.47;101914.53;4992886;28;20043;-75
2023/06/22 05:04:38;;;;;;;13.65;11.88;;;;;;;20.94;73.45;101920.16;4994645;28;20043;-75
2023/06/22 05:07:06;;;;;;;16.00;12.82;;;;;;;21.09;72.73;101924.69;4994714;28;20054;-75
2023/06/22 05:09:33;;;;;;;17.77;12.93;;;;;;;21.53;70.93;101919.50;4994402;28;20479;-75
2023/06/22 05:12:02;;;;;;;14.48;12.95;;;;;;;21.94;69.17;101922.53;4995216;28;20423;-76
2023/06/22 05:14:29;;;;;;;19.83;13.57;;;;;;;22.36;67.48;101920.13;4994479;28;20054;-75
2023/06/22 05:16:58;;;;;;;17.10;13.43;;;;;;;22.51;66.75;101920.59;4977402;28;20058;-75
2023/06/22 05:19:33;;;;;;;19.05;13.60;;;;;;;22.87;65.23;101916.88;4994491;28;20043;-75
2023/06/22 05:21:59;;;;;;;20.88;14.82;;;;;;;23.16;64.28;101923.72;4976919;28;20075;-75
2023/06/22 05:24:26;;;;;;;18.83;15.70;;;;;;;23.40;63.48;101928.56;4994304;28;20126;-75
2023/06/22 05:26:52;;;;;;;18.23;14.88;;;;;;;23.74;62.68;101923.72;4994901;28;20464;-78
2023/06/22 05:29:21;;;;;;;23.10;16.90;;;;;;;24.21;61.32;101923.66;4994246;28;20053;-75
2023/06/22 05:31:49;;;;;;;20.42;17.08;;;;;;;24.10;60.70;101923.72;4994888;28;20054;-75
2023/06/22 05:34:16;;;;;;;25.38;16.30;;;;;;;24.12;61.27;101930.13;4994241;28;20050;-75
2023/06/22 05:36:43;;;;;;;19.38;16.50;;;;;;;24.43;60.59;101926.19;4993803;28;20050;-74
2023/06/22 05:39:14;;;;;;;23.92;16.00;;;;;;;24.48;60.22;101930.84;4994488;28;20460;-73
2023/06/22 05:41:41;;;;;;;22.00;16.55;;;;;;;23.98;61.72;101928.53;4994511;28;20534;-76
2023/06/22 05:44:07;;;;;;;19.77;16.67;;;;;;;23.42;63.65;101928.06;4976627;28;20480;-73
2023/06/22 05:46:34;;;;;;;20.65;17.15;;;;;;;22.88;65.59;101929.22;4994383;28;20047;-73
2023/06/22 05:49:01;;;;;;;20.75;16.33;;;;;;;22.57;66.80;101932.19;4994105;28;20523;-73
2023/06/22 05:51:27;;;;;;;21.02;17.70;;;;;;;22.40;68.17;101928.75;4993785;28;20539;-75
2023/06/22 05:53:54;;;;;;;23.52;16.85;;;;;;;22.27;68.39;101930.00;4994571;28;20133;-75
2023/06/22 05:56:21;;;;;;;22.60;18.10;;;;;;;22.16;69.58;101923.81;4993754;28;20478;-75
2023/06/22 05:58:48;;;;;;;21.15;18.08;;;;;;;22.29;69.28;101937.63;4994025;28;20047;-76
2023/06/22 06:01:15;;;;;;;21.55;18.17;;;;;;;22.81;67.71;101934.41;4993992;28;20534;-75
2023/06/22 06:03:42;;;;;;;19.35;17.20;;;;;;;23.48;65.71;101943.09;4991964;28;20111;-74
2023/06/22 06:06:10;;;;;;;21.67;16.63;;;;;;;23.76;64.60;101931.38;4993849;28;20507;-73
2023/06/22 06:08:38;;;;;;;22.00;18.90;;;;;;;23.71;64.29;101924.72;4993031;28;20551;-73
2023/06/22 06:11:05;;;;;;;19.15;17.08;;;;;;;23.68;64.39;101928.44;4994203;28;20078;-73
2023/06/22 06:13:31;;;;;;;26.10;18.23;;;;;;;23.65;64.42;101931.41;4992533;28;20047;-75
2023/06/22 06:15:59;;;;;;;19.33;17.35;;;;;;;23.57;64.81;101937.41;4994071;28;20043;-73
2023/06/22 06:18:25;;;;;;;19.17;17.25;;;;;;;23.60;65.29;101924.78;4992953;28;20047;-73
2023/06/22 06:20:52;;;;;;;21.17;17.23;;;;;;;23.72;64.51;101920.75;4993937;28;20049;-74
2023/06/22 06:23:19;;;;;;;22.30;16.23;;;;;;;23.77;64.08;101919.25;4993593;28;20122;-73
2023/06/22 06:25:46;;;;;;;17.98;16.13;;;;;;;23.96;64.45;101919.38;4993949;28;20055;-73
2023/06/22 06:28:12;;;;;;;20.15;16.40;;;;;;;23.93;63.43;101910.25;4993671;28;20039;-74
2023/06/22 06:30:40;;;;;;;21.35;15.93;;;;;;;23.86;63.54;101914.25;4993910;28;20047;-76
2023/06/22 06:33:08;;;;;;;20.42;16.85;;;;;;;23.74;63.85;101915.56;4993008;28;20047;-76
2023/06/22 06:35:35;;;;;;;17.33;15.52;;;;;;;23.79;64.11;101909.34;4991854;28;20065;-75
2023/06/22 06:38:02;;;;;;;23.60;16.38;;;;;;;23.86;63.54;101908.81;4993597;28;20043;-75
2023/06/22 06:40:29;;;;;;;21.70;16.35;;;;;;;23.96;62.96;101903.81;4993101;28;20058;-75
2023/06/22 06:42:56;;;;;;;17.40;15.63;;;;;;;24.02;63.51;101901.03;4976050;28;20053;-75
2023/06/22 06:45:24;;;;;;;22.77;16.65;;;;;;;24.20;62.95;101906.59;4992938;28;20143;-75
2023/06/22 06:47:51;;;;;;;19.75;15.95;;;;;;;24.31;61.94;101907.78;4991720;28;20106;-75
2023/06/22 06:50:19;;;;;;;18.83;16.33;;;;;;;24.22;61.96;101901.38;4992934;28;20039;-75
2023/06/22 06:52:45;;;;;;;17.95;16.02;;;;;;;24.19;62.19;101905.09;4993426;28;20051;-75
2023/06/22 06:55:13;;;;;;;18.90;16.23;;;;;;;24.21;62.58;101899.16;4991599;28;20142;-75
2023/06/22 06:57:41;;;;;;;19.77;16.35;;;;;;;24.31;62.09;101900.34;4993143;28;20049;-76
2023/06/22 07:00:11;;;;;;;18.27;16.02;;;;;;;24.43;61.94;101906.41;4992961;28;20042;-75
2023/06/22 07:02:42;;;;;;;20.08;15.50;;;;;;;24.45;62.73;101901.19;4992754;28;20515;-76
2023/06/22 07:05:12;;;;;;;17.17;15.40;;;;;;;24.38;62.19;101899.06;4993262;28;20046;-75
2023/06/22 07:07:41;;;;;;;18.13;16.17;;;;;;;24.31;61.88;101888.72;4993120;28;20314;-76
2023/06/22 07:10:08;;;;;;;16.48;14.75;;;;;;;24.30;62.22;101895.41;4992561;28;20059;-75
2023/06/22 07:12:35;;;;;;;23.25;15.68;;;;;;;24.42;62.21;101896.75;4992998;28;20066;-74
2023/06/22 07:15:07;;;;;;;19.75;15.80;;;;;;;24.42;61.93;101891.31;4993293;28;20057;-76
2023/06/22 07:17:35;;;;;;;17.58;15.02;;;;;;;24.42;61.93;101885.88;4992660;28;20123;-77
2023/06/22 07:20:08;;;;;;;18.65;15.45;;;;;;;24.44;61.05;101895.00;4993069;28;20094;-76
2023/06/22 07:22:34;;;;;;;17.20;14.55;;;;;;;24.58;61.43;101887.72;4992965;28;20051;-77
2023/06/22 07:25:04;;;;;;;15.50;13.40;;;;;;;24.73;60.62;101884.59;4991486;28;20098;-76
2023/06/22 07:27:35;;;;;;;15.63;12.57;;;;;;;24.89;59.12;101889.09;4992573;28;20053;-75
2023/06/22 07:30:02;;;;;;;15.45;13.05;;;;;;;25.15;58.58;101885.88;4993388;28;20533;-74
2023/06/22 07:32:29;;;;;;;15.27;13.68;;;;;;;25.45;57.93;101893.91;4992120;28;20085;-75
2023/06/22 07:34:56;;;;;;;15.70;13.65;;;;;;;25.60;57.58;101892.19;4993124;28;20055;-75
2023/06/22 07:37:22;;;;;;;13.88;12.38;;;;;;;25.79;56.97;101888.72;4991065;28;20110;-75
2023/06/22 07:39:53;;;;;;;13.20;11.93;;;;;;;25.86;55.15;101886.13;4993318;28;20134;-75
2023/06/22 07:42:20;;;;;;;14.57;11.30;;;;;;;25.86;55.37;101880.69;4992772;28;21059;-75
2023/06/22 07:44:46;;;;;;;12.93;11.63;;;;;;;25.78;55.30;101877.09;4992853;28;20075;-75
2023/06/22 07:47:13;;;;;;;12.88;11.77;;;;;;;25.74;54.90;101873.19;4992110;28;20066;-72
2023/06/22 07:49:39;;;;;;;13.35;11.95;;;;;;;25.74;55.42;101863.00;4992551;28;20050;-72
2023/06/22 07:52:06;;;;;;;12.10;11.05;;;;;;;25.88;55.32;101864.53;4992686;28;20416;-72
2023/06/22 07:54:33;;;;;;;15.52;11.88;;;;;;;25.96;55.33;101859.22;4992520;28;20588;-74
2023/06/22 07:57:00;;;;;;;14.88;12.25;;;;;;;25.81;54.68;101869.84;4992811;28;20049;-74
2023/06/22 07:59:26;;;;;;;13.65;11.82;;;;;;;25.82;54.94;101865.88;4991907;28;20115;-74
2023/06/22 08:01:53;;;;;;;14.02;12.13;;;;;;;25.96;54.81;101869.38;4990861;28;20069;-73
2023/06/22 08:04:20;;;;;;;17.98;12.35;;;;;;;26.21;54.44;101857.03;4991658;28;20055;-74
2023/06/22 08:06:46;;;;;;;15.80;10.95;;;;;;;26.31;54.51;101849.97;4992595;28;20467;-75
2023/06/22 08:09:13;;;;;;;14.20;11.52;;;;;;;26.42;53.37;101854.47;4991797;28;20465;-74
2023/06/22 08:11:39;;;;;;;12.57;10.82;;;;;;;26.70;54.45;101848.47;4992021;28;20043;-75
2023/06/22 08:14:06;;;;;;;11.55;10.43;;;;;;;26.95;52.79;101844.22;4991505;28;20138;-76
2023/06/22 08:16:33;;;;;;;11.93;10.73;;;;;;;27.12;51.68;101835.72;4991977;28;20054;-73
2023/06/22 08:18:59;;;;;;;11.65;10.50;;;;;;;27.27;51.81;101835.88;4992408;28;20074;-73
2023/06/22 08:21:26;;;;;;;11.60;10.50;;;;;;;27.34;51.58;101835.22;4991509;28;20356;-74
2023/06/22 08:23:52;;;;;;;11.23;10.23;;;;;;;27.61;50.81;101835.84;4992174;28;20463;-75
2023/06/22 08:26:20;;;;;;;10.90;9.82;;;;;;;27.59;50.16;101837.69;4991360;28;20047;-75
2023/06/22 08:28:46;;;;;;;12.32;10.95;;;;;;;27.26;50.10;101831.66;4991497;28;20074;-75
2023/06/22 08:31:16;;;;;;;12.95;10.05;;;;;;;27.09;51.40;101818.38;4991686;28;20455;-75
2023/06/22 08:33:45;;;;;;;11.63;9.77;;;;;;;27.19;50.79;101810.47;4991544;28;20570;-75
2023/06/22 08:36:16;;;;;;;10.23;9.00;;;;;;;27.16;50.02;101809.53;4991862;28;20057;-75
2023/06/22 08:38:42;;;;;;;10.55;9.60;;;;;;;27.08;50.41;101808.72;4994803;28;20129;-75
2023/06/22 08:41:09;;;;;;;10.63;8.43;;;;;;;27.19;51.44;101807.75;4995066;28;20124;-75
2023/06/22 08:43:36;;;;;;;9.38;8.65;;;;;;;27.28;49.73;101809.28;4994537;28;20058;-75
2023/06/22 08:46:02;;;;;;;9.35;8.50;;;;;;;27.16;49.13;101804.06;4993933;28;20117;-76
2023/06/22 08:48:29;;;;;;;8.65;7.93;;;;;;;27.32;48.80;101796.75;4994664;28;20050;-73
2023/06/22 08:50:56;;;;;;;7.40;6.82;;;;;;;27.50;47.32;101798.56;4995318;28;20058;-73
2023/06/22 08:53:22;;;;;;;8.02;7.43;;;;;;;27.67;47.34;101800.91;4994214;28;20053;-74
2023/06/22 08:55:50;;;;;;;8.93;7.50;;;;;;;27.96;46.23;101798.94;4995188;28;20126;-73
2023/06/22 08:58:18;;;;;;;9.20;6.72;;;;;;;28.12;46.26;101805.25;4994453;28;20081;-73
2023/06/22 09:00:44;;;;;;;11.02;9.20;;;;;;;28.11;45.78;101792.84;4995188;28;20050;-73
2023/06/22 09:03:11;;;;;;;8.23;7.53;;;;;;;27.98;46.25;101799.16;4994624;28;20508;-72
2023/06/22 09:05:38;;;;;;;8.45;7.15;;;;;;;28.04;46.34;101794.25;4994697;28;20492;-73
2023/06/22 09:08:05;;;;;;;6.80;6.07;;;;;;;27.98;45.11;101796.41;4977278;28;20518;-73
2023/06/22 09:10:31;;;;;;;8.25;7.50;;;;;;;27.94;45.43;101793.28;4994483;28;20053;-73
2023/06/22 09:12:58;;;;;;;6.80;5.97;;;;;;;28.00;44.89;101798.59;4994625;28;20523;-73
2023/06/22 09:15:25;;;;;;;6.10;5.50;;;;;;;28.07;45.09;101795.91;4994262;28;20522;-73
2023/06/22 09:17:54;;;;;;;5.88;5.32;;;;;;;28.26;44.59;101792.97;4994663;28;20051;-73
2023/06/22 09:20:20;;;;;;;4.78;4.40;;;;;;;28.20;42.90;101787.59;4994064;28;20316;-73
2023/06/22 09:22:47;;;;;;;5.30;4.75;;;;;;;28.14;42.08;101784.28;4994683;28;20130;-74
2023/06/22 09:25:14;;;;;;;8.45;5.00;;;;;;;27.92;41.97;101786.88;4994245;28;20046;-77
2023/06/22 09:27:40;;;;;;;4.72;4.40;;;;;;;28.10;42.42;101789.34;4993345;28;20059;-74
2023/06/22 09:30:07;;;;;;;5.90;4.75;;;;;;;28.39;43.50;101789.38;4993566;28;20051;-74
2023/06/22 09:32:34;;;;;;;6.00;5.32;;;;;;;28.65;44.19;101791.88;4993901;28;20135;-73
2023/06/22 09:35:05;;;;;;;6.63;5.72;;;;;;;28.84;44.09;101794.31;4994221;28;20058;-74
2023/06/22 09:37:32;;;;;;;6.30;5.85;;;;;;;28.98;42.06;101787.41;4992776;28;20039;-73
2023/06/22 09:39:59;;;;;;;6.53;5.80;;;;;;;29.09;43.03;101787.09;4994491;28;20482;-75
2023/06/22 09:42:25;;;;;;;6.38;5.75;;;;;;;29.09;42.55;101781.59;4993198;28;20475;-74
2023/06/22 09:44:52;;;;;;;6.20;5.70;;;;;;;29.22;41.87;101780.69;4993910;28;20431;-74
2023/06/22 09:47:18;;;;;;;4.80;4.50;;;;;;;29.28;41.68;101772.28;4993350;28;20130;-74
2023/06/22 09:49:45;;;;;;;7.55;5.22;;;;;;;29.19;40.87;101773.59;4994296;28;20047;-74
2023/06/22 09:52:15;;;;;;;6.03;5.53;;;;;;;29.07;42.39;101773.19;4993829;28;20047;-74
2023/06/22 09:54:41;;;;;;;6.20;5.22;;;;;;;28.94;41.59;101775.34;4993990;28;20122;-74
2023/06/22 09:57:08;;;;;;;5.68;5.15;;;;;;;28.74;41.56;101774.19;4993259;28;20109;-74
2023/06/22 09:59:34;;;;;;;7.72;5.63;;;;;;;28.63;42.50;101774.50;4993636;28;20058;-76
2023/06/22 10:02:01;;;;;;;6.70;6.00;;;;;;;28.44;42.82;101781.00;4994100;28;20464;-77
2023/06/22 10:04:28;;;;;;;5.60;5.10;;;;;;;28.32;43.68;101777.13;4993588;28;20038;-76
2023/06/22 10:06:55;;;;;;;6.32;5.72;;;;;;;28.23;44.33;101771.41;4994256;28;20043;-74
2023/06/22 10:09:22;;;;;;;6.07;5.63;;;;;;;28.06;44.33;101780.75;4993101;28;20065;-73
2023/06/22 10:11:48;;;;;;;7.97;6.03;;;;;;;27.95;44.65;101783.06;4994037;28;20104;-74
2023/06/22 10:14:15;;;;;;;5.80;5.22;;;;;;;27.76;44.73;101775.09;4993963;28;20466;-74
2023/06/22 10:16:42;;;;;;;5.75;5.18;;;;;;;27.60;44.29;101774.22;4993768;28;20058;-74
2023/06/22 10:19:08;;;;;;;6.57;4.95;;;;;;;27.60;44.85;101768.75;4993510;28;20102;-74
2023/06/22 10:21:35;;;;;;;5.82;5.18;;;;;;;27.56;45.00;101762.88;4976444;28;20405;-73
2023/06/22 10:24:05;;;;;;;6.28;5.45;;;;;;;27.29;44.91;101764.28;4993924;28;20046;-75
2023/06/22 10:26:33;;;;;;;4.80;4.40;;;;;;;27.19;45.23;101769.47;4993243;28;20039;-75
2023/06/22 10:29:01;;;;;;;5.13;4.25;;;;;;;27.14;44.90;101771.06;4993770;28;20055;-74
2023/06/22 10:31:43;;;;;;;4.88;4.53;;;;;;;27.09;44.27;101769.19;4993172;28;20050;-73
2023/06/22 10:34:09;;;;;;;5.50;4.53;;;;;;;26.95;44.39;101777.94;4993512;28;20523;-73
2023/06/22 10:36:36;;;;;;;6.85;4.80;;;;;;;26.95;45.05;101773.22;4993332;28;20046;-74
2023/06/22 10:39:02;;;;;;;5.10;4.70;;;;;;;26.92;45.71;101774.25;4993459;28;20547;-73
2023/06/22 10:41:30;;;;;;;5.85;4.97;;;;;;;26.78;45.54;101765.38;4975774;28;20081;-73
2023/06/22 10:43:57;;;;;;;5.97;5.43;;;;;;;26.69;45.36;101774.00;4993463;28;20105;-73
2023/06/22 10:46:25;;;;;;;5.35;4.95;;;;;;;26.60;45.90;101766.25;4993188;28;20118;-74
2023/06/22 10:48:54;;;;;;;6.80;5.25;;;;;;;26.50;46.34;101765.94;4993473;28;20425;-75
2023/06/22 10:51:21;;;;;;;6.70;5.30;;;;;;;26.43;45.94;101763.84;4992782;28;20046;-77
2023/06/22 10:53:48;;;;;;;5.35;4.97;;;;;;;26.50;46.09;101765.22;4975524;28;20101;-75
2023/06/22 10:56:14;;;;;;;5.60;5.20;;;;;;;26.47;45.85;101769.72;4993224;28;20510;-75
2023/06/22 10:58:41;;;;;;;5.22;4.82;;;;;;;26.52;46.37;101766.16;4975590;28;20047;-75
2023/06/22 11:01:07;;;;;;;5.68;5.30;;;;;;;26.47;46.53;101769.00;4992260;28;20047;-73
2023/06/22 11:03:42;;;;;;;6.03;4.88;;;;;;;26.61;46.54;101770.44;4993685;28;20047;-74
2023/06/22 11:06:09;;;;;;;8.38;6.40;;;;;;;26.60;46.04;101766.25;4992996;28;20047;-74
2023/06/22 11:08:35;;;;;;;7.15;6.32;;;;;;;26.58;46.23;101768.78;4992241;28;20460;-74
2023/06/22 11:11:02;;;;;;;7.22;6.53;;;;;;;26.65;46.07;101764.66;4993108;28;20047;-75
2023/06/22 11:13:29;;;;;;;6.60;6.03;;;;;;;26.68;46.98;101761.63;4992627;28;20587;-74
2023/06/22 11:15:55;;;;;;;6.50;5.90;;;;;;;26.70;46.56;101756.38;4975651;28;20053;-74
2023/06/22 11:18:23;;;;;;;6.40;5.80;;;;;;;26.71;47.53;101754.38;4992580;28;20508;-75
2023/06/22 11:20:49;;;;;;;6.95;6.30;;;;;;;26.76;46.16;101754.25;4993059;28;20531;-74
2023/06/22 11:23:19;;;;;;;6.65;5.95;;;;;;;26.84;46.69;101763.25;4991952;28;20584;-73